TNCM

Details ICAO TNCM (SXM)
Name Princess Juliana Intl
Region Caribbean Netherlands, Aruba, Curaçao, Sint Maarten
Timezone Unknown
Plans Departing 4138
Arriving 6190
Stats Elevation 14 ft / 4 m (AMSL)
Location 18.040900° -63.108900°
Runways 1
Magnetic Variation 14.366° W
Sunrise 2019-06-17 09:38:23 UTC / 2019-06-17 09:38:23 Local
Sunset 2019-06-17 22:50:50 UTC / 2019-06-17 22:50:50 Local
Advertisement - Login to hide

Runways

ID Width Length Bearing (true/mag) Surface Threshold Overrun Markings Lighting
10 148 ft / 45 m 7,553 ft / 2,302 m 81.44° / 95.81° ASPHALT 331 ft / 101 m 164 ft / 50 m PREC-APP EDGE THRESHOLD REIL-OMNI
28 148 ft / 45 m 7,553 ft / 2,302 m 261.45° / 275.81° ASPHALT 0 ft / 0 m 200 ft / 61 m APP EDGE THRESHOLD

Map

Weather


0- 5 10 15 20 25 30 35+ Temperature / °C

Clouds and Precipitation
Forecast for 2019-06-12 12:00 UTC. Updated 5 days ago

Ground ~20,000 ft ~40,000 ft Winds

METAR

TNCM 170900Z 06007KT 9999 VCSH BKN018 28/24 Q1018 RMK A3007

TAF

TAF TNCM 170525Z 1706/1806 08014KT 6SM HZ SCT020

Frequencies

Tower 118.70 MHz Juliana Tower
Departure 128.95 MHz Juliana Departure
Approach 128.95 MHz Juliana Approach
Recorded 127.65 MHz ATIS
Warning: Do not use this data for real-world aviation or navigation. No guarantee of current accuracy is given.